sensor_id;sensor_type;location;lat;lon;timestamp;pressure;altitude;pressure_sealevel;temperature;humidity
40918;BME280;26644;50.248;19.032;2023-08-07T00:01:52;96938.16;;;15.26;84.76
40918;BME280;26644;50.248;19.032;2023-08-07T00:04:59;96928.22;;;15.25;84.87
40918;BME280;26644;50.248;19.032;2023-08-07T00:08:04;96922.63;;;15.22;85.10
40918;BME280;26644;50.248;19.032;2023-08-07T00:11:10;96922.50;;;15.18;85.06
40918;BME280;26644;50.248;19.032;2023-08-07T00:14:14;96911.88;;;15.20;85.27
40918;BME280;26644;50.248;19.032;2023-08-07T00:17:19;96913.63;;;15.13;85.47
40918;BME280;26644;50.248;19.032;2023-08-07T00:20:26;96919.50;;;15.23;85.30
40918;BME280;26644;50.248;19.032;2023-08-07T00:23:31;96920.41;;;15.27;85.22
40918;BME280;26644;50.248;19.032;2023-08-07T00:26:35;96918.09;;;15.30;85.06
40918;BME280;26644;50.248;19.032;2023-08-07T00:29:40;96913.25;;;15.26;85.02
40918;BME280;26644;50.248;19.032;2023-08-07T00:32:45;96914.41;;;15.25;84.63
40918;BME280;26644;50.248;19.032;2023-08-07T00:35:52;96913.63;;;15.25;84.60
40918;BME280;26644;50.248;19.032;2023-08-07T00:38:56;96921.81;;;15.34;84.87
40918;BME280;26644;50.248;19.032;2023-08-07T00:42:01;96919.13;;;15.37;84.68
40918;BME280;26644;50.248;19.032;2023-08-07T00:45:07;96921.53;;;15.39;84.37
40918;BME280;26644;50.248;19.032;2023-08-07T00:48:15;96921.53;;;15.39;84.99
40918;BME280;26644;50.248;19.032;2023-08-07T00:51:23;96923.72;;;15.45;84.84
40918;BME280;26644;50.248;19.032;2023-08-07T00:54:29;96915.78;;;15.44;84.34
40918;BME280;26644;50.248;19.032;2023-08-07T00:57:35;96910.84;;;15.50;84.47
40918;BME280;26644;50.248;19.032;2023-08-07T01:00:41;96912.44;;;15.51;84.47
40918;BME280;26644;50.248;19.032;2023-08-07T01:03:45;96909.69;;;15.51;84.44
40918;BME280;26644;50.248;19.032;2023-08-07T01:06:52;96900.78;;;15.45;84.30
40918;BME280;26644;50.248;19.032;2023-08-07T01:09:57;96910.72;;;15.46;84.28
40918;BME280;26644;50.248;19.032;2023-08-07T01:13:10;96912.56;;;15.42;84.43
40918;BME280;26644;50.248;19.032;2023-08-07T01:16:33;96911.28;;;15.39;84.42
40918;BME280;26644;50.248;19.032;2023-08-07T01:19:43;96906.34;;;15.33;84.70
40918;BME280;26644;50.248;19.032;2023-08-07T01:22:51;96916.81;;;15.39;84.76
40918;BME280;26644;50.248;19.032;2023-08-07T01:25:56;96915.22;;;15.38;84.54
40918;BME280;26644;50.248;19.032;2023-08-07T01:29:15;96917.19;;;15.38;84.45
40918;BME280;26644;50.248;19.032;2023-08-07T01:32:33;96914.28;;;15.34;84.68
40918;BME280;26644;50.248;19.032;2023-08-07T01:35:44;96912.69;;;15.33;84.62
40918;BME280;26644;50.248;19.032;2023-08-07T01:38:55;96911.78;;;15.29;84.98
40918;BME280;26644;50.248;19.032;2023-08-07T01:42:03;96902.09;;;15.23;84.82
40918;BME280;26644;50.248;19.032;2023-08-07T01:45:10;96898.19;;;15.24;85.18
40918;BME280;26644;50.248;19.032;2023-08-07T01:48:14;96909.34;;;15.27;84.95
40918;BME280;26644;50.248;19.032;2023-08-07T01:51:19;96915.22;;;15.26;85.38
40918;BME280;26644;50.248;19.032;2023-08-07T01:54:27;96905.22;;;15.21;85.48
40918;BME280;26644;50.248;19.032;2023-08-07T01:57:32;96914.06;;;15.27;85.43
40918;BME280;26644;50.248;19.032;2023-08-07T02:00:36;96901.19;;;15.19;85.58
40918;BME280;26644;50.248;19.032;2023-08-07T02:03:44;96909.25;;;15.24;85.61
40918;BME280;26644;50.248;19.032;2023-08-07T02:06:48;96908.78;;;15.22;85.63
40918;BME280;26644;50.248;19.032;2023-08-07T02:10:01;96916.25;;;15.21;85.82
40918;BME280;26644;50.248;19.032;2023-08-07T02:13:06;96894.28;;;15.13;85.98
40918;BME280;26644;50.248;19.032;2023-08-07T02:16:10;96907.84;;;15.18;85.99
40918;BME280;26644;50.248;19.032;2023-08-07T02:19:15;96905.78;;;15.15;86.38
40918;BME280;26644;50.248;19.032;2023-08-07T02:22:19;96902.34;;;15.05;86.47
40918;BME280;26644;50.248;19.032;2023-08-07T02:25:27;96914.78;;;15.11;86.75
40918;BME280;26644;50.248;19.032;2023-08-07T02:28:31;96908.00;;;15.09;86.59
40918;BME280;26644;50.248;19.032;2023-08-07T02:31:37;96921.59;;;15.14;86.66
40918;BME280;26644;50.248;19.032;2023-08-07T02:34:41;96918.34;;;15.12;86.78
40918;BME280;26644;50.248;19.032;2023-08-07T02:37:46;96927.47;;;15.13;86.78
40918;BME280;26644;50.248;19.032;2023-08-07T02:40:53;96917.44;;;15.08;87.07
40918;BME280;26644;50.248;19.032;2023-08-07T02:43:58;96923.88;;;15.12;86.77
40918;BME280;26644;50.248;19.032;2023-08-07T02:47:02;96914.22;;;15.06;86.91
40918;BME280;26644;50.248;19.032;2023-08-07T02:50:08;96928.59;;;15.11;86.83
40918;BME280;26644;50.248;19.032;2023-08-07T02:53:12;96926.28;;;15.14;86.93
40918;BME280;26644;50.248;19.032;2023-08-07T02:56:20;96930.22;;;15.13;86.84
40918;BME280;26644;50.248;19.032;2023-08-07T02:59:24;96905.25;;;14.97;86.78
40918;BME280;26644;50.248;19.032;2023-08-07T03:02:29;96930.53;;;15.11;86.88
40918;BME280;26644;50.248;19.032;2023-08-07T03:05:33;96930.53;;;15.11;87.09
40918;BME280;26644;50.248;19.032;2023-08-07T03:08:38;96927.00;;;15.10;86.96
40918;BME280;26644;50.248;19.032;2023-08-07T03:11:46;96938.41;;;15.09;87.04
40918;BME280;26644;50.248;19.032;2023-08-07T03:14:51;96927.22;;;15.05;87.23
40918;BME280;26644;50.248;19.032;2023-08-07T03:17:55;96928.34;;;15.04;87.25
40918;BME280;26644;50.248;19.032;2023-08-07T03:21:00;96916.28;;;14.97;87.23
40918;BME280;26644;50.248;19.032;2023-08-07T03:24:05;96925.50;;;15.01;87.70
40918;BME280;26644;50.248;19.032;2023-08-07T03:27:13;96918.72;;;14.98;87.77
40918;BME280;26644;50.248;19.032;2023-08-07T03:30:17;96924.91;;;14.95;87.90
40918;BME280;26644;50.248;19.032;2023-08-07T03:33:22;96924.47;;;14.93;88.24
40918;BME280;26644;50.248;19.032;2023-08-07T03:36:28;96927.22;;;14.93;88.10
40918;BME280;26644;50.248;19.032;2023-08-07T03:39:33;96932.41;;;14.94;88.45
40918;BME280;26644;50.248;19.032;2023-08-07T03:42:39;96927.22;;;14.93;88.76
40918;BME280;26644;50.248;19.032;2023-08-07T03:45:46;96928.72;;;14.90;88.78
40918;BME280;26644;50.248;19.032;2023-08-07T03:48:51;96927.88;;;14.90;88.93
40918;BME280;26644;50.248;19.032;2023-08-07T03:51:56;96937.81;;;14.91;89.29
40918;BME280;26644;50.248;19.032;2023-08-07T03:55:01;96935.97;;;14.95;89.32
40918;BME280;26644;50.248;19.032;2023-08-07T03:58:09;96944.72;;;14.97;89.14
40918;BME280;26644;50.248;19.032;2023-08-07T04:01:13;96958.19;;;14.99;89.10
40918;BME280;26644;50.248;19.032;2023-08-07T04:04:18;96955.78;;;14.97;88.91
40918;BME280;26644;50.248;19.032;2023-08-07T04:07:22;96963.38;;;15.00;88.73
40918;BME280;26644;50.248;19.032;2023-08-07T04:10:27;96955.06;;;15.00;88.87
40918;BME280;26644;50.248;19.032;2023-08-07T04:13:35;96952.78;;;15.02;88.79
40918;BME280;26644;50.248;19.032;2023-08-07T04:16:40;96959.47;;;15.01;88.75
40918;BME280;26644;50.248;19.032;2023-08-07T04:19:44;96962.22;;;15.01;88.93
40918;BME280;26644;50.248;19.032;2023-08-07T04:22:49;96961.44;;;15.01;88.85
40918;BME280;26644;50.248;19.032;2023-08-07T04:25:54;96935.59;;;14.84;88.93
40918;BME280;26644;50.248;19.032;2023-08-07T04:29:02;96952.53;;;14.95;88.89
40918;BME280;26644;50.248;19.032;2023-08-07T04:32:07;96959.22;;;14.94;89.25
40918;BME280;26644;50.248;19.032;2023-08-07T04:35:12;96961.75;;;14.99;89.27
40918;BME280;26644;50.248;19.032;2023-08-07T04:38:17;96965.34;;;15.00;89.27
40918;BME280;26644;50.248;19.032;2023-08-07T04:41:22;96962.91;;;14.98;89.36
40918;BME280;26644;50.248;19.032;2023-08-07T04:44:29;96964.84;;;14.98;89.37
40918;BME280;26644;50.248;19.032;2023-08-07T04:47:34;96962.09;;;14.98;89.32
40918;BME280;26644;50.248;19.032;2023-08-07T04:50:39;96966.94;;;15.01;89.24
40918;BME280;26644;50.248;19.032;2023-08-07T04:53:44;96968.09;;;15.00;88.93
40918;BME280;26644;50.248;19.032;2023-08-07T04:56:51;96969.25;;;14.99;88.51
40918;BME280;26644;50.248;19.032;2023-08-07T04:59:59;96965.91;;;14.93;88.68
40918;BME280;26644;50.248;19.032;2023-08-07T05:03:03;96968.19;;;14.91;88.66
40918;BME280;26644;50.248;19.032;2023-08-07T05:06:08;96978.44;;;14.90;88.88
40918;BME280;26644;50.248;19.032;2023-08-07T05:09:12;96979.25;;;14.78;88.47
40918;BME280;26644;50.248;19.032;2023-08-07T05:12:18;96983.72;;;14.71;89.12
40918;BME280;26644;50.248;19.032;2023-08-07T05:15:26;96987.16;;;14.68;89.37
40918;BME280;26644;50.248;19.032;2023-08-07T05:18:32;96984.75;;;14.66;89.82
40918;BME280;26644;50.248;19.032;2023-08-07T05:21:37;96982.84;;;14.58;89.86
40918;BME280;26644;50.248;19.032;2023-08-07T05:24:42;96991.28;;;14.61;90.38
40918;BME280;26644;50.248;19.032;2023-08-07T05:27:46;96991.63;;;14.60;90.53
40918;BME280;26644;50.248;19.032;2023-08-07T05:30:53;96993.81;;;14.67;90.37
40918;BME280;26644;50.248;19.032;2023-08-07T05:33:58;96994.06;;;14.74;90.32
40918;BME280;26644;50.248;19.032;2023-08-07T05:37:03;96999.72;;;14.77;90.22
40918;BME280;26644;50.248;19.032;2023-08-07T05:40:09;97005.72;;;14.80;89.88
40918;BME280;26644;50.248;19.032;2023-08-07T05:43:14;97003.75;;;14.80;89.73
40918;BME280;26644;50.248;19.032;2023-08-07T05:46:22;97005.72;;;14.80;89.62
40918;BME280;26644;50.248;19.032;2023-08-07T05:49:27;97009.16;;;14.76;89.11
40918;BME280;26644;50.248;19.032;2023-08-07T05:52:32;97007.88;;;14.74;89.29
40918;BME280;26644;50.248;19.032;2023-08-07T05:55:39;97010.19;;;14.72;89.05
40918;BME280;26644;50.248;19.032;2023-08-07T05:58:44;97009.03;;;14.73;89.31
40918;BME280;26644;50.248;19.032;2023-08-07T06:01:53;97007.56;;;14.75;89.15
40918;BME280;26644;50.248;19.032;2023-08-07T06:04:57;97011.59;;;14.78;89.61
40918;BME280;26644;50.248;19.032;2023-08-07T06:08:02;97014.81;;;14.80;89.64
40918;BME280;26644;50.248;19.032;2023-08-07T06:11:07;97011.81;;;14.85;89.28
40918;BME280;26644;50.248;19.032;2023-08-07T06:14:12;97024.28;;;14.91;89.14
40918;BME280;26644;50.248;19.032;2023-08-07T06:17:19;97025.66;;;14.98;89.01
40918;BME280;26644;50.248;19.032;2023-08-07T06:20:24;97024.28;;;15.04;88.50
40918;BME280;26644;50.248;19.032;2023-08-07T06:23:28;97009.44;;;15.08;88.08
40918;BME280;26644;50.248;19.032;2023-08-07T06:26:33;97027.66;;;15.22;88.10
40918;BME280;26644;50.248;19.032;2023-08-07T06:29:38;97026.88;;;15.34;87.59
40918;BME280;26644;50.248;19.032;2023-08-07T06:32:45;97020.84;;;15.32;86.39
40918;BME280;26644;50.248;19.032;2023-08-07T06:35:52;97029.06;;;15.40;86.13
40918;BME280;26644;50.248;19.032;2023-08-07T06:38:57;97028.72;;;15.54;85.91
40918;BME280;26644;50.248;19.032;2023-08-07T06:42:01;97038.97;;;15.66;85.60
40918;BME280;26644;50.248;19.032;2023-08-07T06:45:10;97028.47;;;15.72;85.18
40918;BME280;26644;50.248;19.032;2023-08-07T06:48:17;97012.00;;;15.63;84.22
40918;BME280;26644;50.248;19.032;2023-08-07T06:51:22;97029.97;;;15.69;83.96
40918;BME280;26644;50.248;19.032;2023-08-07T06:54:26;97030.88;;;15.73;83.56
40918;BME280;26644;50.248;19.032;2023-08-07T06:57:31;97040.34;;;15.72;83.52
40918;BME280;26644;50.248;19.032;2023-08-07T07:00:37;97036.09;;;15.75;83.50
40918;BME280;26644;50.248;19.032;2023-08-07T07:03:45;97042.41;;;15.75;83.08
40918;BME280;26644;50.248;19.032;2023-08-07T07:06:53;97043.78;;;15.69;82.96
40918;BME280;26644;50.248;19.032;2023-08-07T07:09:58;97042.19;;;15.81;83.66
40918;BME280;26644;50.248;19.032;2023-08-07T07:13:03;97051.59;;;15.92;83.59
40918;BME280;26644;50.248;19.032;2023-08-07T07:16:09;97051.72;;;15.96;82.26
40918;BME280;26644;50.248;19.032;2023-08-07T07:19:17;97060.16;;;15.99;81.96
40918;BME280;26644;50.248;19.032;2023-08-07T07:22:22;97046.91;;;15.92;81.71
40918;BME280;26644;50.248;19.032;2023-08-07T07:25:26;97061.28;;;15.98;81.83
40918;BME280;26644;50.248;19.032;2023-08-07T07:28:31;97064.41;;;15.97;81.48
40918;BME280;26644;50.248;19.032;2023-08-07T07:31:36;97065.44;;;15.92;82.28
40918;BME280;26644;50.248;19.032;2023-08-07T07:34:44;97065.44;;;15.92;82.28
40918;BME280;26644;50.248;19.032;2023-08-07T07:37:48;97070.22;;;15.79;81.72
40918;BME280;26644;50.248;19.032;2023-08-07T07:40:53;97071.34;;;15.78;81.92
40918;BME280;26644;50.248;19.032;2023-08-07T07:43:57;97076.31;;;15.72;82.11
40918;BME280;26644;50.248;19.032;2023-08-07T07:47:04;97090.03;;;15.69;82.47
40918;BME280;26644;50.248;19.032;2023-08-07T07:50:12;97080.34;;;15.63;82.69
40918;BME280;26644;50.248;19.032;2023-08-07T07:53:17;97084.84;;;15.67;82.90
40918;BME280;26644;50.248;19.032;2023-08-07T07:56:21;97083.72;;;15.68;82.97
40918;BME280;26644;50.248;19.032;2023-08-07T07:59:26;97090.03;;;15.69;83.06
40918;BME280;26644;50.248;19.032;2023-08-07T08:02:31;97076.06;;;15.65;82.76
40918;BME280;26644;50.248;19.032;2023-08-07T08:05:38;97091.63;;;15.82;83.07
40918;BME280;26644;50.248;19.032;2023-08-07T08:08:43;97069.38;;;15.78;82.46
40918;BME280;26644;50.248;19.032;2023-08-07T08:11:48;97100.84;;;15.99;82.38
40918;BME280;26644;50.248;19.032;2023-08-07T08:14:52;97097.84;;;16.04;82.30
40918;BME280;26644;50.248;19.032;2023-08-07T08:17:57;97107.28;;;16.15;82.59
40918;BME280;26644;50.248;19.032;2023-08-07T08:21:04;97113.16;;;16.26;82.55
40918;BME280;26644;50.248;19.032;2023-08-07T08:24:09;97111.97;;;16.39;82.71
40918;BME280;26644;50.248;19.032;2023-08-07T08:27:13;97117.97;;;16.41;80.77
40918;BME280;26644;50.248;19.032;2023-08-07T08:30:19;97119.59;;;16.42;80.23
40918;BME280;26644;50.248;19.032;2023-08-07T08:33:23;97118.78;;;16.42;80.24
40918;BME280;26644;50.248;19.032;2023-08-07T08:36:31;97113.94;;;16.39;80.43
40918;BME280;26644;50.248;19.032;2023-08-07T08:39:35;97131.13;;;16.44;80.71
40918;BME280;26644;50.248;19.032;2023-08-07T08:42:40;97126.28;;;16.54;81.15
40918;BME280;26644;50.248;19.032;2023-08-07T08:45:45;97130.97;;;16.66;80.76
40918;BME280;26644;50.248;19.032;2023-08-07T08:48:56;97126.19;;;16.79;80.45
40918;BME280;26644;50.248;19.032;2023-08-07T08:52:05;97123.44;;;16.79;79.25
40918;BME280;26644;50.248;19.032;2023-08-07T08:55:13;97130.88;;;16.90;79.08
40918;BME280;26644;50.248;19.032;2023-08-07T08:58:18;97133.41;;;16.96;78.94
40918;BME280;26644;50.248;19.032;2023-08-07T09:01:25;97134.75;;;17.02;78.95
40918;BME280;26644;50.248;19.032;2023-08-07T09:04:30;97121.59;;;16.99;79.19
40918;BME280;26644;50.248;19.032;2023-08-07T09:07:38;97126.69;;;16.97;78.36
40918;BME280;26644;50.248;19.032;2023-08-07T09:10:43;97140.03;;;17.07;77.96
40918;BME280;26644;50.248;19.032;2023-08-07T09:13:49;97132.88;;;17.06;77.74
40918;BME280;26644;50.248;19.032;2023-08-07T09:16:53;97140.44;;;17.21;76.67
40918;BME280;26644;50.248;19.032;2023-08-07T09:19:59;97148.66;;;17.34;76.76
40918;BME280;26644;50.248;19.032;2023-08-07T09:23:08;97148.25;;;17.48;76.62
40918;BME280;26644;50.248;19.032;2023-08-07T09:26:13;97132.94;;;17.38;75.90
40918;BME280;26644;50.248;19.032;2023-08-07T09:29:17;97151.81;;;17.32;75.49
40918;BME280;26644;50.248;19.032;2023-08-07T09:32:22;97153.56;;;17.24;76.78
40918;BME280;26644;50.248;19.032;2023-08-07T09:35:29;97156.88;;;17.14;77.63
40918;BME280;26644;50.248;19.032;2023-08-07T09:38:38;97161.84;;;17.08;77.67
40918;BME280;26644;50.248;19.032;2023-08-07T09:41:42;97169.38;;;17.08;77.63
40918;BME280;26644;50.248;19.032;2023-08-07T09:44:47;97168.22;;;17.09;77.91
40918;BME280;26644;50.248;19.032;2023-08-07T09:47:58;97167.00;;;17.22;78.83
40918;BME280;26644;50.248;19.032;2023-08-07T09:51:04;97163.06;;;17.23;77.89
40918;BME280;26644;50.248;19.032;2023-08-07T09:54:11;97167.91;;;17.26;77.88
40918;BME280;26644;50.248;19.032;2023-08-07T09:57:16;97175.06;;;17.27;78.25
40918;BME280;26644;50.248;19.032;2023-08-07T10:00:21;97180.38;;;17.33;78.63
40918;BME280;26644;50.248;19.032;2023-08-07T10:03:27;97185.00;;;17.44;79.32
40918;BME280;26644;50.248;19.032;2023-08-07T10:06:31;97184.88;;;17.53;77.69
40918;BME280;26644;50.248;19.032;2023-08-07T10:09:40;97192.50;;;17.56;77.69
40918;BME280;26644;50.248;19.032;2023-08-07T10:12:46;97196.00;;;17.69;78.21
40918;BME280;26644;50.248;19.032;2023-08-07T10:15:53;97200.69;;;17.81;77.43
40918;BME280;26644;50.248;19.032;2023-08-07T10:18:58;97189.84;;;17.76;76.70
40918;BME280;26644;50.248;19.032;2023-08-07T10:22:04;97196.09;;;17.73;76.48
40918;BME280;26644;50.248;19.032;2023-08-07T10:25:11;97192.50;;;17.72;75.97
40918;BME280;26644;50.248;19.032;2023-08-07T10:28:19;97219.38;;;17.68;75.76
40918;BME280;26644;50.248;19.032;2023-08-07T10:31:27;97225.28;;;17.38;73.52
40918;BME280;26644;50.248;19.032;2023-08-07T10:34:35;97235.25;;;16.99;72.89
40918;BME280;26644;50.248;19.032;2023-08-07T10:37:43;97235.56;;;16.69;73.99
40918;BME280;26644;50.248;19.032;2023-08-07T10:41:06;97231.31;;;16.47;74.56
40918;BME280;26644;50.248;19.032;2023-08-07T10:44:18;97223.69;;;16.31;74.76
40918;BME280;26644;50.248;19.032;2023-08-07T10:47:33;97240.31;;;16.19;75.19
40918;BME280;26644;50.248;19.032;2023-08-07T10:50:49;97232.56;;;16.00;75.39
40918;BME280;26644;50.248;19.032;2023-08-07T10:53:56;97246.50;;;15.91;76.95
40918;BME280;26644;50.248;19.032;2023-08-07T10:57:10;97248.81;;;15.89;77.31
40918;BME280;26644;50.248;19.032;2023-08-07T11:00:18;97252.94;;;15.83;79.40
40918;BME280;26644;50.248;19.032;2023-08-07T11:03:29;97248.56;;;15.82;78.99
40918;BME280;26644;50.248;19.032;2023-08-07T11:06:41;97249.47;;;15.73;78.81
40918;BME280;26644;50.248;19.032;2023-08-07T11:09:46;97246.31;;;15.63;80.10
40918;BME280;26644;50.248;19.032;2023-08-07T11:12:58;97235.16;;;15.59;79.93
40918;BME280;26644;50.248;19.032;2023-08-07T11:16:03;97233.97;;;15.60;80.99
40918;BME280;26644;50.248;19.032;2023-08-07T11:19:09;97241.63;;;15.63;80.98
40918;BME280;26644;50.248;19.032;2023-08-07T11:22:15;97238.50;;;15.65;81.39
40918;BME280;26644;50.248;19.032;2023-08-07T11:25:20;97237.69;;;15.64;80.47
40918;BME280;26644;50.248;19.032;2023-08-07T11:28:28;97243.31;;;15.55;79.99
40918;BME280;26644;50.248;19.032;2023-08-07T11:31:33;97237.72;;;15.43;80.50
40918;BME280;26644;50.248;19.032;2023-08-07T11:34:37;97247.91;;;15.51;81.05
40918;BME280;26644;50.248;19.032;2023-08-07T11:37:45;97259.31;;;15.50;80.19
40918;BME280;26644;50.248;19.032;2023-08-07T11:40:53;97242.66;;;15.37;80.89
40918;BME280;26644;50.248;19.032;2023-08-07T11:44:00;97261.25;;;15.49;81.02
40918;BME280;26644;50.248;19.032;2023-08-07T11:47:06;97255.25;;;15.47;81.37
40918;BME280;26644;50.248;19.032;2023-08-07T11:50:11;97262.00;;;15.58;81.67
40918;BME280;26644;50.248;19.032;2023-08-07T11:53:16;97262.34;;;15.57;80.90
40918;BME280;26644;50.248;19.032;2023-08-07T11:56:22;97271.44;;;15.57;81.30
40918;BME280;26644;50.248;19.032;2023-08-07T11:59:29;97275.16;;;15.62;81.23
40918;BME280;26644;50.248;19.032;2023-08-07T12:02:35;97262.34;;;15.57;81.62
40918;BME280;26644;50.248;19.032;2023-08-07T12:05:40;97289.09;;;15.65;81.26
40918;BME280;26644;50.248;19.032;2023-08-07T12:08:45;97282.78;;;15.65;80.88
40918;BME280;26644;50.248;19.032;2023-08-07T12:11:55;97271.13;;;15.59;81.09
40918;BME280;26644;50.248;19.032;2023-08-07T12:15:07;97291.19;;;15.68;81.88
40918;BME280;26644;50.248;19.032;2023-08-07T12:18:12;97293.63;;;15.70;81.57
40918;BME280;26644;50.248;19.032;2023-08-07T12:21:19;97301.56;;;15.71;80.96
40918;BME280;26644;50.248;19.032;2023-08-07T12:24:25;97302.72;;;15.70;81.06
40918;BME280;26644;50.248;19.032;2023-08-07T12:27:30;97307.47;;;15.70;81.06
40918;BME280;26644;50.248;19.032;2023-08-07T12:30:37;97316.22;;;15.72;80.63
40918;BME280;26644;50.248;19.032;2023-08-07T12:33:43;97305.50;;;15.70;80.79
40918;BME280;26644;50.248;19.032;2023-08-07T12:36:47;97321.31;;;15.82;80.70
40918;BME280;26644;50.248;19.032;2023-08-07T12:39:52;97324.81;;;15.91;81.10
40918;BME280;26644;50.248;19.032;2023-08-07T12:42:57;97310.47;;;15.89;80.44
40918;BME280;26644;50.248;19.032;2023-08-07T12:46:05;97327.03;;;16.10;81.01
40918;BME280;26644;50.248;19.032;2023-08-07T12:49:09;97340.09;;;16.22;80.47
40918;BME280;26644;50.248;19.032;2023-08-07T12:52:15;97348.31;;;16.31;79.62
40918;BME280;26644;50.248;19.032;2023-08-07T12:55:19;97310.56;;;16.14;79.54
40918;BME280;26644;50.248;19.032;2023-08-07T12:58:24;97347.25;;;16.36;79.38
40918;BME280;26644;50.248;19.032;2023-08-07T13:01:32;97342.41;;;16.33;79.64
40918;BME280;26644;50.248;19.032;2023-08-07T13:04:37;97336.09;;;16.32;79.63
40918;BME280;26644;50.248;19.032;2023-08-07T13:07:42;97346.34;;;16.32;80.24
40918;BME280;26644;50.248;19.032;2023-08-07T13:10:47;97349.09;;;16.32;80.30
40918;BME280;26644;50.248;19.032;2023-08-07T13:13:51;97341.97;;;16.31;80.48
40918;BME280;26644;50.248;19.032;2023-08-07T13:16:59;97343.25;;;16.33;80.64
40918;BME280;26644;50.248;19.032;2023-08-07T13:20:05;97339.44;;;16.38;80.08
40918;BME280;26644;50.248;19.032;2023-08-07T13:23:14;97364.53;;;16.54;79.84
40918;BME280;26644;50.248;19.032;2023-08-07T13:26:18;97356.91;;;16.63;79.83
40918;BME280;26644;50.248;19.032;2023-08-07T13:29:23;97365.22;;;16.75;79.62
40918;BME280;26644;50.248;19.032;2023-08-07T13:32:33;97339.69;;;16.70;79.10
40918;BME280;26644;50.248;19.032;2023-08-07T13:35:38;97357.34;;;16.90;78.54
40918;BME280;26644;50.248;19.032;2023-08-07T13:38:42;97361.63;;;17.00;78.56
40918;BME280;26644;50.248;19.032;2023-08-07T13:41:47;97347.44;;;17.01;78.36
40918;BME280;26644;50.248;19.032;2023-08-07T13:44:51;97344.28;;;17.15;78.22
40918;BME280;26644;50.248;19.032;2023-08-07T13:47:58;97352.91;;;17.26;77.28
40918;BME280;26644;50.248;19.032;2023-08-07T13:51:03;97351.88;;;17.31;76.68
40918;BME280;26644;50.248;19.032;2023-08-07T13:54:10;97356.22;;;17.44;76.74
40918;BME280;26644;50.248;19.032;2023-08-07T13:57:14;97375.91;;;17.51;76.43
40918;BME280;26644;50.248;19.032;2023-08-07T14:00:19;97371.16;;;17.52;75.30
40918;BME280;26644;50.248;19.032;2023-08-07T14:03:26;97364.53;;;17.56;75.36
40918;BME280;26644;50.248;19.032;2023-08-07T14:06:31;97359.56;;;17.62;75.82
40918;BME280;26644;50.248;19.032;2023-08-07T14:09:36;97371.53;;;17.79;75.48
40918;BME280;26644;50.248;19.032;2023-08-07T14:12:40;97368.75;;;17.79;74.78
40918;BME280;26644;50.248;19.032;2023-08-07T14:15:45;97361.94;;;17.76;74.76
40918;BME280;26644;50.248;19.032;2023-08-07T14:18:52;97381.22;;;17.85;74.78
40918;BME280;26644;50.248;19.032;2023-08-07T14:21:57;97373.03;;;17.76;74.58
40918;BME280;26644;50.248;19.032;2023-08-07T14:25:02;97381.91;;;17.82;74.90
40918;BME280;26644;50.248;19.032;2023-08-07T14:28:06;97378.34;;;17.81;75.21
40918;BME280;26644;50.248;19.032;2023-08-07T14:31:11;97385.22;;;17.71;74.98
40918;BME280;26644;50.248;19.032;2023-08-07T14:34:18;97393.19;;;17.73;75.23
40918;BME280;26644;50.248;19.032;2023-08-07T14:37:23;97378.81;;;17.71;75.53
40918;BME280;26644;50.248;19.032;2023-08-07T14:40:28;97382.19;;;17.76;75.09
40918;BME280;26644;50.248;19.032;2023-08-07T14:43:33;97375.13;;;17.79;74.96
40918;BME280;26644;50.248;19.032;2023-08-07T14:46:37;97395.09;;;17.85;74.81
40918;BME280;26644;50.248;19.032;2023-08-07T14:49:45;97408.81;;;17.93;74.02
40918;BME280;26644;50.248;19.032;2023-08-07T14:52:49;97400.47;;;17.93;72.96
40918;BME280;26644;50.248;19.032;2023-08-07T14:55:54;97400.75;;;17.88;72.42
40918;BME280;26644;50.248;19.032;2023-08-07T14:58:58;97407.22;;;17.92;72.62
40918;BME280;26644;50.248;19.032;2023-08-07T15:02:04;97414.06;;;17.83;71.49
40918;BME280;26644;50.248;19.032;2023-08-07T15:05:13;97414.91;;;17.71;72.08
40918;BME280;26644;50.248;19.032;2023-08-07T15:08:19;97422.94;;;17.60;72.26
40918;BME280;26644;50.248;19.032;2023-08-07T15:11:23;97418.41;;;17.43;73.38
40918;BME280;26644;50.248;19.032;2023-08-07T15:14:28;97423.78;;;17.23;74.66
40918;BME280;26644;50.248;19.032;2023-08-07T15:17:32;97434.16;;;17.02;76.17
40918;BME280;26644;50.248;19.032;2023-08-07T15:20:40;97442.59;;;16.81;77.47
40918;BME280;26644;50.248;19.032;2023-08-07T15:23:45;97447.78;;;16.57;79.19
40918;BME280;26644;50.248;19.032;2023-08-07T15:26:50;97439.28;;;16.41;80.71
40918;BME280;26644;50.248;19.032;2023-08-07T15:29:54;97429.19;;;16.24;81.07
40918;BME280;26644;50.248;19.032;2023-08-07T15:32:59;97428.31;;;16.11;82.03
40918;BME280;26644;50.248;19.032;2023-08-07T15:36:06;97431.66;;;16.05;82.12
40918;BME280;26644;50.248;19.032;2023-08-07T15:39:11;97437.88;;;16.02;82.75
40918;BME280;26644;50.248;19.032;2023-08-07T15:42:15;97425.03;;;15.97;83.10
40918;BME280;26644;50.248;19.032;2023-08-07T15:45:21;97430.84;;;16.04;83.39
40918;BME280;26644;50.248;19.032;2023-08-07T15:48:25;97424.47;;;16.04;83.12
40918;BME280;26644;50.248;19.032;2023-08-07T15:51:33;97435.00;;;16.10;83.03
40918;BME280;26644;50.248;19.032;2023-08-07T15:54:37;97447.63;;;16.20;83.13
40918;BME280;26644;50.248;19.032;2023-08-07T15:57:45;97449.84;;;16.27;82.81
40918;BME280;26644;50.248;19.032;2023-08-07T16:00:49;97459.88;;;16.32;82.40
40918;BME280;26644;50.248;19.032;2023-08-07T16:03:55;97460.03;;;16.35;82.21
40918;BME280;26644;50.248;19.032;2023-08-07T16:07:03;97454.75;;;16.42;82.32
40918;BME280;26644;50.248;19.032;2023-08-07T16:10:09;97458.09;;;16.48;82.08
40918;BME280;26644;50.248;19.032;2023-08-07T16:13:13;97453.53;;;16.52;82.01